sensor_id;sensor_type;location;lat;lon;timestamp;P1;durP1;ratioP1;P2;durP2;ratioP2
43696;SDS011;29301;47.620;19.560;2022-10-15T00:01:09;0.70;;;0.50;;
43696;SDS011;29301;47.620;19.560;2022-10-15T00:03:39;0.70;;;0.50;;
43696;SDS011;29301;47.620;19.560;2022-10-15T00:06:07;0.70;;;0.43;;
43696;SDS011;29301;47.620;19.560;2022-10-15T00:08:38;0.60;;;0.40;;
43696;SDS011;29301;47.620;19.560;2022-10-15T00:11:04;0.70;;;0.50;;
43696;SDS011;29301;47.620;19.560;2022-10-15T00:13:32;0.70;;;0.50;;
43696;SDS011;29301;47.620;19.560;2022-10-15T00:15:59;0.70;;;0.50;;
43696;SDS011;29301;47.620;19.560;2022-10-15T00:18:25;0.80;;;0.50;;
43696;SDS011;29301;47.620;19.560;2022-10-15T00:20:50;0.70;;;0.50;;
43696;SDS011;29301;47.620;19.560;2022-10-15T00:23:16;0.70;;;0.40;;
43696;SDS011;29301;47.620;19.560;2022-10-15T00:25:42;0.70;;;0.50;;
43696;SDS011;29301;47.620;19.560;2022-10-15T00:28:07;0.70;;;0.50;;
43696;SDS011;29301;47.620;19.560;2022-10-15T00:30:33;0.80;;;0.50;;
43696;SDS011;29301;47.620;19.560;2022-10-15T00:32:59;0.70;;;0.50;;
43696;SDS011;29301;47.620;19.560;2022-10-15T00:35:25;0.70;;;0.50;;
43696;SDS011;29301;47.620;19.560;2022-10-15T00:37:50;0.70;;;0.50;;
43696;SDS011;29301;47.620;19.560;2022-10-15T00:40:16;0.70;;;0.50;;
43696;SDS011;29301;47.620;19.560;2022-10-15T00:42:41;0.70;;;0.50;;
43696;SDS011;29301;47.620;19.560;2022-10-15T00:45:08;0.70;;;0.50;;
43696;SDS011;29301;47.620;19.560;2022-10-15T00:47:54;0.70;;;0.50;;
43696;SDS011;29301;47.620;19.560;2022-10-15T00:50:21;0.80;;;0.50;;
43696;SDS011;29301;47.620;19.560;2022-10-15T00:53:01;0.70;;;0.50;;
43696;SDS011;29301;47.620;19.560;2022-10-15T00:55:33;0.70;;;0.50;;
43696;SDS011;29301;47.620;19.560;2022-10-15T00:58:06;0.70;;;0.50;;
43696;SDS011;29301;47.620;19.560;2022-10-15T01:00:39;0.70;;;0.50;;
43696;SDS011;29301;47.620;19.560;2022-10-15T01:03:05;0.70;;;0.50;;
43696;SDS011;29301;47.620;19.560;2022-10-15T01:05:32;0.70;;;0.50;;
43696;SDS011;29301;47.620;19.560;2022-10-15T01:07:59;0.70;;;0.50;;
43696;SDS011;29301;47.620;19.560;2022-10-15T01:10:26;0.70;;;0.50;;
43696;SDS011;29301;47.620;19.560;2022-10-15T01:16:07;0.70;;;0.50;;
43696;SDS011;29301;47.620;19.560;2022-10-15T01:18:45;0.70;;;0.50;;
43696;SDS011;29301;47.620;19.560;2022-10-15T01:21:24;0.70;;;0.57;;
43696;SDS011;29301;47.620;19.560;2022-10-15T01:24:33;0.70;;;0.50;;
43696;SDS011;29301;47.620;19.560;2022-10-15T01:41:10;0.70;;;0.50;;
43696;SDS011;29301;47.620;19.560;2022-10-15T01:43:53;0.70;;;0.55;;
43696;SDS011;29301;47.620;19.560;2022-10-15T01:47:07;0.80;;;0.55;;
43696;SDS011;29301;47.620;19.560;2022-10-15T01:49:20;0.70;;;0.60;;
43696;SDS011;29301;47.620;19.560;2022-10-15T01:51:50;0.80;;;0.50;;
43696;SDS011;29301;47.620;19.560;2022-10-15T01:54:19;0.80;;;0.50;;
43696;SDS011;29301;47.620;19.560;2022-10-15T01:56:48;0.80;;;0.50;;
43696;SDS011;29301;47.620;19.560;2022-10-15T01:59:17;0.70;;;0.50;;
43696;SDS011;29301;47.620;19.560;2022-10-15T02:01:46;0.70;;;0.50;;
43696;SDS011;29301;47.620;19.560;2022-10-15T02:04:19;0.70;;;0.50;;
43696;SDS011;29301;47.620;19.560;2022-10-15T02:06:55;0.70;;;0.50;;
43696;SDS011;29301;47.620;19.560;2022-10-15T02:22:53;0.80;;;0.50;;
43696;SDS011;29301;47.620;19.560;2022-10-15T02:25:35;0.70;;;0.50;;
43696;SDS011;29301;47.620;19.560;2022-10-15T02:28:04;0.70;;;0.50;;
43696;SDS011;29301;47.620;19.560;2022-10-15T02:30:32;0.70;;;0.50;;
43696;SDS011;29301;47.620;19.560;2022-10-15T02:33:01;0.70;;;0.50;;
43696;SDS011;29301;47.620;19.560;2022-10-15T02:35:27;0.70;;;0.50;;
43696;SDS011;29301;47.620;19.560;2022-10-15T02:37:53;0.70;;;0.50;;
43696;SDS011;29301;47.620;19.560;2022-10-15T02:40:23;0.70;;;0.50;;
43696;SDS011;29301;47.620;19.560;2022-10-15T02:42:52;0.70;;;0.50;;
43696;SDS011;29301;47.620;19.560;2022-10-15T02:45:19;0.70;;;0.50;;
43696;SDS011;29301;47.620;19.560;2022-10-15T02:47:45;0.70;;;0.50;;
43696;SDS011;29301;47.620;19.560;2022-10-15T02:50:10;0.80;;;0.60;;
43696;SDS011;29301;47.620;19.560;2022-10-15T02:52:36;0.80;;;0.60;;
43696;SDS011;29301;47.620;19.560;2022-10-15T02:55:02;0.70;;;0.50;;
43696;SDS011;29301;47.620;19.560;2022-10-15T02:57:28;0.70;;;0.50;;
43696;SDS011;29301;47.620;19.560;2022-10-15T02:59:53;0.70;;;0.50;;
43696;SDS011;29301;47.620;19.560;2022-10-15T03:02:19;0.70;;;0.47;;
43696;SDS011;29301;47.620;19.560;2022-10-15T03:04:45;0.70;;;0.50;;
43696;SDS011;29301;47.620;19.560;2022-10-15T03:07:11;0.70;;;0.50;;
43696;SDS011;29301;47.620;19.560;2022-10-15T03:09:36;0.70;;;0.50;;
43696;SDS011;29301;47.620;19.560;2022-10-15T03:12:02;0.70;;;0.50;;
43696;SDS011;29301;47.620;19.560;2022-10-15T03:14:28;0.70;;;0.50;;
43696;SDS011;29301;47.620;19.560;2022-10-15T03:16:54;0.70;;;0.50;;
43696;SDS011;29301;47.620;19.560;2022-10-15T03:19:19;0.70;;;0.50;;
43696;SDS011;29301;47.620;19.560;2022-10-15T03:21:45;0.70;;;0.50;;
43696;SDS011;29301;47.620;19.560;2022-10-15T03:24:11;0.70;;;0.50;;
43696;SDS011;29301;47.620;19.560;2022-10-15T03:26:36;0.70;;;0.50;;
43696;SDS011;29301;47.620;19.560;2022-10-15T03:29:02;0.70;;;0.50;;
43696;SDS011;29301;47.620;19.560;2022-10-15T03:31:28;0.70;;;0.50;;
43696;SDS011;29301;47.620;19.560;2022-10-15T03:33:53;0.70;;;0.50;;
43696;SDS011;29301;47.620;19.560;2022-10-15T03:36:19;0.70;;;0.50;;
43696;SDS011;29301;47.620;19.560;2022-10-15T03:38:45;0.70;;;0.50;;
43696;SDS011;29301;47.620;19.560;2022-10-15T03:41:10;0.70;;;0.50;;
43696;SDS011;29301;47.620;19.560;2022-10-15T03:43:36;0.70;;;0.50;;
43696;SDS011;29301;47.620;19.560;2022-10-15T03:46:02;0.80;;;0.60;;
43696;SDS011;29301;47.620;19.560;2022-10-15T03:48:29;0.70;;;0.50;;
43696;SDS011;29301;47.620;19.560;2022-10-15T03:50:55;0.70;;;0.50;;
43696;SDS011;29301;47.620;19.560;2022-10-15T03:53:21;0.80;;;0.52;;
43696;SDS011;29301;47.620;19.560;2022-10-15T03:55:47;0.70;;;0.50;;
43696;SDS011;29301;47.620;19.560;2022-10-15T03:58:12;0.75;;;0.50;;
43696;SDS011;29301;47.620;19.560;2022-10-15T04:00:42;0.70;;;0.50;;
43696;SDS011;29301;47.620;19.560;2022-10-15T04:03:08;0.70;;;0.50;;
43696;SDS011;29301;47.620;19.560;2022-10-15T04:05:34;0.70;;;0.50;;
43696;SDS011;29301;47.620;19.560;2022-10-15T04:08:00;0.70;;;0.50;;
43696;SDS011;29301;47.620;19.560;2022-10-15T04:10:26;0.70;;;0.50;;
43696;SDS011;29301;47.620;19.560;2022-10-15T04:12:52;0.70;;;0.50;;
43696;SDS011;29301;47.620;19.560;2022-10-15T04:15:18;0.70;;;0.50;;
43696;SDS011;29301;47.620;19.560;2022-10-15T04:17:43;0.70;;;0.60;;
43696;SDS011;29301;47.620;19.560;2022-10-15T04:20:09;0.70;;;0.60;;
43696;SDS011;29301;47.620;19.560;2022-10-15T04:22:35;0.70;;;0.50;;
43696;SDS011;29301;47.620;19.560;2022-10-15T04:25:01;0.80;;;0.60;;
43696;SDS011;29301;47.620;19.560;2022-10-15T04:27:28;0.70;;;0.50;;
43696;SDS011;29301;47.620;19.560;2022-10-15T04:29:53;0.70;;;0.60;;
43696;SDS011;29301;47.620;19.560;2022-10-15T04:32:19;0.70;;;0.50;;
43696;SDS011;29301;47.620;19.560;2022-10-15T04:34:45;0.70;;;0.60;;
43696;SDS011;29301;47.620;19.560;2022-10-15T04:37:11;0.70;;;0.50;;
43696;SDS011;29301;47.620;19.560;2022-10-15T04:39:37;0.70;;;0.50;;
43696;SDS011;29301;47.620;19.560;2022-10-15T04:42:03;0.70;;;0.50;;
43696;SDS011;29301;47.620;19.560;2022-10-15T04:44:28;0.80;;;0.60;;
43696;SDS011;29301;47.620;19.560;2022-10-15T04:46:54;0.70;;;0.60;;
43696;SDS011;29301;47.620;19.560;2022-10-15T04:49:20;0.80;;;0.60;;
43696;SDS011;29301;47.620;19.560;2022-10-15T04:51:46;0.80;;;0.50;;
43696;SDS011;29301;47.620;19.560;2022-10-15T04:54:12;0.80;;;0.60;;
43696;SDS011;29301;47.620;19.560;2022-10-15T04:56:37;0.70;;;0.57;;
43696;SDS011;29301;47.620;19.560;2022-10-15T04:59:05;0.70;;;0.50;;
43696;SDS011;29301;47.620;19.560;2022-10-15T05:01:32;0.70;;;0.50;;
43696;SDS011;29301;47.620;19.560;2022-10-15T05:03:58;0.80;;;0.60;;
43696;SDS011;29301;47.620;19.560;2022-10-15T05:06:23;0.80;;;0.50;;
43696;SDS011;29301;47.620;19.560;2022-10-15T05:08:49;0.70;;;0.50;;
43696;SDS011;29301;47.620;19.560;2022-10-15T05:13:43;0.70;;;0.50;;
43696;SDS011;29301;47.620;19.560;2022-10-15T05:16:14;0.80;;;0.60;;
43696;SDS011;29301;47.620;19.560;2022-10-15T05:18:51;0.70;;;0.50;;
43696;SDS011;29301;47.620;19.560;2022-10-15T05:21:20;0.70;;;0.50;;
43696;SDS011;29301;47.620;19.560;2022-10-15T05:23:46;0.70;;;0.50;;
43696;SDS011;29301;47.620;19.560;2022-10-15T05:26:15;0.70;;;0.50;;
43696;SDS011;29301;47.620;19.560;2022-10-15T05:28:45;0.80;;;0.57;;
43696;SDS011;29301;47.620;19.560;2022-10-15T05:31:15;0.70;;;0.50;;
43696;SDS011;29301;47.620;19.560;2022-10-15T05:33:42;0.70;;;0.50;;
43696;SDS011;29301;47.620;19.560;2022-10-15T05:36:11;0.70;;;0.50;;
43696;SDS011;29301;47.620;19.560;2022-10-15T05:38:49;0.70;;;0.50;;
43696;SDS011;29301;47.620;19.560;2022-10-15T05:41:16;0.70;;;0.50;;
43696;SDS011;29301;47.620;19.560;2022-10-15T05:43:42;0.70;;;0.50;;
43696;SDS011;29301;47.620;19.560;2022-10-15T05:46:11;0.70;;;0.50;;
43696;SDS011;29301;47.620;19.560;2022-10-15T05:48:36;0.70;;;0.50;;
43696;SDS011;29301;47.620;19.560;2022-10-15T05:51:02;0.70;;;0.50;;
43696;SDS011;29301;47.620;19.560;2022-10-15T05:53:29;0.70;;;0.50;;
43696;SDS011;29301;47.620;19.560;2022-10-15T05:55:55;0.70;;;0.50;;
43696;SDS011;29301;47.620;19.560;2022-10-15T05:58:23;0.80;;;0.60;;
43696;SDS011;29301;47.620;19.560;2022-10-15T06:00:54;0.70;;;0.55;;
43696;SDS011;29301;47.620;19.560;2022-10-15T06:03:20;0.70;;;0.50;;
43696;SDS011;29301;47.620;19.560;2022-10-15T06:05:47;0.70;;;0.50;;
43696;SDS011;29301;47.620;19.560;2022-10-15T06:08:12;0.80;;;0.50;;
43696;SDS011;29301;47.620;19.560;2022-10-15T06:10:38;0.80;;;0.60;;
43696;SDS011;29301;47.620;19.560;2022-10-15T06:13:04;0.80;;;0.50;;
43696;SDS011;29301;47.620;19.560;2022-10-15T06:15:30;0.70;;;0.50;;
43696;SDS011;29301;47.620;19.560;2022-10-15T06:17:56;0.70;;;0.50;;
43696;SDS011;29301;47.620;19.560;2022-10-15T06:20:22;0.70;;;0.50;;
43696;SDS011;29301;47.620;19.560;2022-10-15T06:22:48;0.70;;;0.50;;
43696;SDS011;29301;47.620;19.560;2022-10-15T06:25:13;0.70;;;0.50;;
43696;SDS011;29301;47.620;19.560;2022-10-15T06:27:39;0.70;;;0.50;;
43696;SDS011;29301;47.620;19.560;2022-10-15T06:30:05;0.80;;;0.50;;
43696;SDS011;29301;47.620;19.560;2022-10-15T06:32:32;0.68;;;0.45;;
43696;SDS011;29301;47.620;19.560;2022-10-15T06:34:57;0.70;;;0.50;;
43696;SDS011;29301;47.620;19.560;2022-10-15T06:37:23;0.70;;;0.50;;
43696;SDS011;29301;47.620;19.560;2022-10-15T06:39:49;0.70;;;0.50;;
43696;SDS011;29301;47.620;19.560;2022-10-15T06:42:15;0.70;;;0.50;;
43696;SDS011;29301;47.620;19.560;2022-10-15T06:44:40;0.70;;;0.50;;
43696;SDS011;29301;47.620;19.560;2022-10-15T06:47:06;0.70;;;0.50;;
43696;SDS011;29301;47.620;19.560;2022-10-15T06:49:32;0.70;;;0.50;;
43696;SDS011;29301;47.620;19.560;2022-10-15T06:51:58;0.80;;;0.50;;
43696;SDS011;29301;47.620;19.560;2022-10-15T06:54:23;0.70;;;0.50;;
43696;SDS011;29301;47.620;19.560;2022-10-15T06:56:49;0.70;;;0.50;;
43696;SDS011;29301;47.620;19.560;2022-10-15T06:59:15;0.73;;;0.50;;
43696;SDS011;29301;47.620;19.560;2022-10-15T07:01:41;0.70;;;0.50;;
43696;SDS011;29301;47.620;19.560;2022-10-15T07:04:07;0.80;;;0.50;;
43696;SDS011;29301;47.620;19.560;2022-10-15T07:06:36;0.80;;;0.50;;
43696;SDS011;29301;47.620;19.560;2022-10-15T07:09:02;0.70;;;0.50;;
43696;SDS011;29301;47.620;19.560;2022-10-15T07:11:29;0.80;;;0.55;;
43696;SDS011;29301;47.620;19.560;2022-10-15T07:13:55;0.80;;;0.60;;
43696;SDS011;29301;47.620;19.560;2022-10-15T07:16:22;0.70;;;0.50;;
43696;SDS011;29301;47.620;19.560;2022-10-15T07:18:48;0.70;;;0.50;;
43696;SDS011;29301;47.620;19.560;2022-10-15T07:21:14;0.70;;;0.50;;
43696;SDS011;29301;47.620;19.560;2022-10-15T07:23:39;0.80;;;0.50;;
43696;SDS011;29301;47.620;19.560;2022-10-15T07:26:05;0.70;;;0.50;;
43696;SDS011;29301;47.620;19.560;2022-10-15T07:28:31;0.70;;;0.50;;
43696;SDS011;29301;47.620;19.560;2022-10-15T07:31:01;0.70;;;0.50;;
43696;SDS011;29301;47.620;19.560;2022-10-15T07:33:28;0.70;;;0.50;;
43696;SDS011;29301;47.620;19.560;2022-10-15T07:35:54;0.70;;;0.50;;
43696;SDS011;29301;47.620;19.560;2022-10-15T07:38:19;0.70;;;0.50;;
43696;SDS011;29301;47.620;19.560;2022-10-15T07:40:45;0.70;;;0.50;;
43696;SDS011;29301;47.620;19.560;2022-10-15T07:43:11;0.80;;;0.60;;
43696;SDS011;29301;47.620;19.560;2022-10-15T07:45:37;0.70;;;0.50;;
43696;SDS011;29301;47.620;19.560;2022-10-15T07:48:03;0.70;;;0.50;;
43696;SDS011;29301;47.620;19.560;2022-10-15T07:50:29;0.70;;;0.50;;
43696;SDS011;29301;47.620;19.560;2022-10-15T07:52:55;0.70;;;0.50;;
43696;SDS011;29301;47.620;19.560;2022-10-15T07:55:21;0.80;;;0.50;;
43696;SDS011;29301;47.620;19.560;2022-10-15T07:57:46;0.77;;;0.50;;
43696;SDS011;29301;47.620;19.560;2022-10-15T08:00:12;0.70;;;0.50;;
43696;SDS011;29301;47.620;19.560;2022-10-15T08:02:38;0.70;;;0.57;;
43696;SDS011;29301;47.620;19.560;2022-10-15T08:05:04;0.70;;;0.50;;
43696;SDS011;29301;47.620;19.560;2022-10-15T08:07:31;0.70;;;0.40;;
43696;SDS011;29301;47.620;19.560;2022-10-15T08:09:56;0.70;;;0.40;;
43696;SDS011;29301;47.620;19.560;2022-10-15T08:12:22;0.73;;;0.50;;
43696;SDS011;29301;47.620;19.560;2022-10-15T08:14:48;0.65;;;0.45;;
43696;SDS011;29301;47.620;19.560;2022-10-15T08:17:13;0.80;;;0.50;;
43696;SDS011;29301;47.620;19.560;2022-10-15T08:19:39;0.68;;;0.40;;
43696;SDS011;29301;47.620;19.560;2022-10-15T08:22:05;0.70;;;0.40;;
43696;SDS011;29301;47.620;19.560;2022-10-15T08:24:30;0.60;;;0.40;;
43696;SDS011;29301;47.620;19.560;2022-10-15T08:26:56;0.70;;;0.40;;
43696;SDS011;29301;47.620;19.560;2022-10-15T08:29:22;0.60;;;0.40;;
43696;SDS011;29301;47.620;19.560;2022-10-15T08:31:48;0.50;;;0.40;;
43696;SDS011;29301;47.620;19.560;2022-10-15T08:34:15;0.50;;;0.40;;
43696;SDS011;29301;47.620;19.560;2022-10-15T08:36:41;0.50;;;0.40;;
43696;SDS011;29301;47.620;19.560;2022-10-15T08:39:07;0.43;;;0.40;;
43696;SDS011;29301;47.620;19.560;2022-10-15T08:44:29;0.40;;;0.40;;
43696;SDS011;29301;47.620;19.560;2022-10-15T08:47:04;0.50;;;0.40;;
43696;SDS011;29301;47.620;19.560;2022-10-15T08:52:07;0.50;;;0.40;;
43696;SDS011;29301;47.620;19.560;2022-10-15T08:54:41;0.50;;;0.40;;
43696;SDS011;29301;47.620;19.560;2022-10-15T08:57:14;0.50;;;0.40;;
43696;SDS011;29301;47.620;19.560;2022-10-15T08:59:53;0.47;;;0.35;;
43696;SDS011;29301;47.620;19.560;2022-10-15T09:02:32;0.70;;;0.50;;
43696;SDS011;29301;47.620;19.560;2022-10-15T09:05:15;0.40;;;0.30;;
43696;SDS011;29301;47.620;19.560;2022-10-15T09:13:19;0.40;;;0.30;;
43696;SDS011;29301;47.620;19.560;2022-10-15T09:18:25;0.40;;;0.32;;
43696;SDS011;29301;47.620;19.560;2022-10-15T09:20:54;0.30;;;0.30;;
43696;SDS011;29301;47.620;19.560;2022-10-15T09:23:22;0.50;;;0.40;;
43696;SDS011;29301;47.620;19.560;2022-10-15T09:25:54;0.30;;;0.30;;
43696;SDS011;29301;47.620;19.560;2022-10-15T09:28:22;0.40;;;0.40;;
43696;SDS011;29301;47.620;19.560;2022-10-15T09:30:54;0.40;;;0.40;;
43696;SDS011;29301;47.620;19.560;2022-10-15T09:33:39;0.50;;;0.40;;
43696;SDS011;29301;47.620;19.560;2022-10-15T09:39:11;0.40;;;0.30;;
43696;SDS011;29301;47.620;19.560;2022-10-15T09:44:27;0.30;;;0.30;;
43696;SDS011;29301;47.620;19.560;2022-10-15T09:47:13;0.50;;;0.40;;
43696;SDS011;29301;47.620;19.560;2022-10-15T09:49:58;0.47;;;0.40;;
43696;SDS011;29301;47.620;19.560;2022-10-15T09:57:54;0.50;;;0.40;;
43696;SDS011;29301;47.620;19.560;2022-10-15T10:00:22;0.30;;;0.30;;
43696;SDS011;29301;47.620;19.560;2022-10-15T10:03:05;0.40;;;0.30;;
43696;SDS011;29301;47.620;19.560;2022-10-15T10:05:38;0.30;;;0.30;;
43696;SDS011;29301;47.620;19.560;2022-10-15T10:08:17;0.30;;;0.30;;
43696;SDS011;29301;47.620;19.560;2022-10-15T10:10:43;0.30;;;0.30;;
43696;SDS011;29301;47.620;19.560;2022-10-15T10:13:21;0.30;;;0.30;;
43696;SDS011;29301;47.620;19.560;2022-10-15T10:15:48;0.40;;;0.30;;
43696;SDS011;29301;47.620;19.560;2022-10-15T10:18:19;0.40;;;0.30;;
43696;SDS011;29301;47.620;19.560;2022-10-15T10:23:34;0.50;;;0.30;;
43696;SDS011;29301;47.620;19.560;2022-10-15T10:26:04;0.30;;;0.30;;
43696;SDS011;29301;47.620;19.560;2022-10-15T10:31:14;0.60;;;0.40;;
43696;SDS011;29301;47.620;19.560;2022-10-15T10:47:13;0.30;;;0.30;;
43696;SDS011;29301;47.620;19.560;2022-10-15T10:54:57;0.30;;;0.30;;
43696;SDS011;29301;47.620;19.560;2022-10-15T11:00:34;0.30;;;0.20;;
43696;SDS011;29301;47.620;19.560;2022-10-15T11:03:06;0.40;;;0.30;;
43696;SDS011;29301;47.620;19.560;2022-10-15T11:05:53;0.43;;;0.30;;
43696;SDS011;29301;47.620;19.560;2022-10-15T11:11:12;0.30;;;0.20;;
43696;SDS011;29301;47.620;19.560;2022-10-15T11:16:23;0.30;;;0.30;;
43696;SDS011;29301;47.620;19.560;2022-10-15T11:19:16;0.30;;;0.20;;
43696;SDS011;29301;47.620;19.560;2022-10-15T11:24:15;0.30;;;0.30;;
43696;SDS011;29301;47.620;19.560;2022-10-15T11:32:19;0.40;;;0.30;;
43696;SDS011;29301;47.620;19.560;2022-10-15T11:40:24;0.40;;;0.30;;
43696;SDS011;29301;47.620;19.560;2022-10-15T11:45:55;0.38;;;0.30;;
43696;SDS011;29301;47.620;19.560;2022-10-15T11:48:42;0.32;;;0.30;;
43696;SDS011;29301;47.620;19.560;2022-10-15T11:54:12;0.32;;;0.30;;
43696;SDS011;29301;47.620;19.560;2022-10-15T11:57:00;0.40;;;0.30;;
43696;SDS011;29301;47.620;19.560;2022-10-15T12:02:12;0.30;;;0.30;;
43696;SDS011;29301;47.620;19.560;2022-10-15T12:04:50;0.40;;;0.30;;
43696;SDS011;29301;47.620;19.560;2022-10-15T12:07:26;0.30;;;0.30;;
43696;SDS011;29301;47.620;19.560;2022-10-15T12:09:59;0.40;;;0.30;;
43696;SDS011;29301;47.620;19.560;2022-10-15T12:12:52;0.40;;;0.30;;
43696;SDS011;29301;47.620;19.560;2022-10-15T12:20:58;0.35;;;0.25;;
43696;SDS011;29301;47.620;19.560;2022-10-15T12:23:25;0.30;;;0.30;;
43696;SDS011;29301;47.620;19.560;2022-10-15T12:28:52;0.30;;;0.30;;
43696;SDS011;29301;47.620;19.560;2022-10-15T12:31:19;0.30;;;0.30;;
43696;SDS011;29301;47.620;19.560;2022-10-15T12:33:46;0.40;;;0.30;;
43696;SDS011;29301;47.620;19.560;2022-10-15T12:38:51;0.30;;;0.20;;
43696;SDS011;29301;47.620;19.560;2022-10-15T12:41:45;0.40;;;0.30;;
43696;SDS011;29301;47.620;19.560;2022-10-15T12:46:41;0.30;;;0.30;;
43696;SDS011;29301;47.620;19.560;2022-10-15T12:51:52;0.30;;;0.30;;
43696;SDS011;29301;47.620;19.560;2022-10-15T12:54:32;0.40;;;0.30;;
43696;SDS011;29301;47.620;19.560;2022-10-15T12:57:49;0.30;;;0.30;;
43696;SDS011;29301;47.620;19.560;2022-10-15T12:59:58;0.35;;;0.30;;
43696;SDS011;29301;47.620;19.560;2022-10-15T13:05:24;0.30;;;0.30;;
43696;SDS011;29301;47.620;19.560;2022-10-15T13:07:56;0.30;;;0.30;;
43696;SDS011;29301;47.620;19.560;2022-10-15T13:10:26;0.40;;;0.30;;
43696;SDS011;29301;47.620;19.560;2022-10-15T13:13:02;0.40;;;0.30;;
43696;SDS011;29301;47.620;19.560;2022-10-15T13:15:29;0.30;;;0.30;;
43696;SDS011;29301;47.620;19.560;2022-10-15T13:17:57;0.40;;;0.30;;
43696;SDS011;29301;47.620;19.560;2022-10-15T13:25:39;0.30;;;0.30;;
43696;SDS011;29301;47.620;19.560;2022-10-15T13:30:52;0.38;;;0.30;;
43696;SDS011;29301;47.620;19.560;2022-10-15T13:33:19;0.40;;;0.30;;
43696;SDS011;29301;47.620;19.560;2022-10-15T13:35:45;0.35;;;0.30;;
43696;SDS011;29301;47.620;19.560;2022-10-15T13:38:21;0.40;;;0.30;;
43696;SDS011;29301;47.620;19.560;2022-10-15T13:40:49;0.40;;;0.30;;
43696;SDS011;29301;47.620;19.560;2022-10-15T13:43:20;0.40;;;0.30;;
43696;SDS011;29301;47.620;19.560;2022-10-15T13:45:57;0.40;;;0.30;;
43696;SDS011;29301;47.620;19.560;2022-10-15T13:48:28;0.40;;;0.30;;
43696;SDS011;29301;47.620;19.560;2022-10-15T13:50:56;0.40;;;0.30;;
43696;SDS011;29301;47.620;19.560;2022-10-15T13:55:56;0.30;;;0.30;;
43696;SDS011;29301;47.620;19.560;2022-10-15T13:58:24;0.43;;;0.30;;
43696;SDS011;29301;47.620;19.560;2022-10-15T14:01:19;0.40;;;0.30;;
43696;SDS011;29301;47.620;19.560;2022-10-15T14:03:53;0.35;;;0.30;;
43696;SDS011;29301;47.620;19.560;2022-10-15T14:06:21;0.40;;;0.30;;
43696;SDS011;29301;47.620;19.560;2022-10-15T14:09:10;0.35;;;0.30;;
43696;SDS011;29301;47.620;19.560;2022-10-15T14:11:36;0.30;;;0.20;;
43696;SDS011;29301;47.620;19.560;2022-10-15T14:14:24;0.40;;;0.30;;
43696;SDS011;29301;47.620;19.560;2022-10-15T14:17:09;0.40;;;0.30;;
43696;SDS011;29301;47.620;19.560;2022-10-15T14:19:45;0.38;;;0.30;;
43696;SDS011;29301;47.620;19.560;2022-10-15T14:22:22;0.40;;;0.30;;
43696;SDS011;29301;47.620;19.560;2022-10-15T14:24:51;0.30;;;0.30;;
43696;SDS011;29301;47.620;19.560;2022-10-15T14:27:22;0.30;;;0.30;;
43696;SDS011;29301;47.620;19.560;2022-10-15T14:29:49;0.30;;;0.30;;
43696;SDS011;29301;47.620;19.560;2022-10-15T14:32:27;0.30;;;0.20;;
43696;SDS011;29301;47.620;19.560;2022-10-15T14:35:24;0.30;;;0.30;;
43696;SDS011;29301;47.620;19.560;2022-10-15T14:38:01;0.40;;;0.30;;
43696;SDS011;29301;47.620;19.560;2022-10-15T14:40:29;0.30;;;0.30;;
43696;SDS011;29301;47.620;19.560;2022-10-15T14:48:08;0.40;;;0.30;;
43696;SDS011;29301;47.620;19.560;2022-10-15T14:50:43;0.40;;;0.30;;
43696;SDS011;29301;47.620;19.560;2022-10-15T14:53:09;0.40;;;0.30;;
43696;SDS011;29301;47.620;19.560;2022-10-15T14:55:52;0.30;;;0.30;;
43696;SDS011;29301;47.620;19.560;2022-10-15T14:58:22;0.30;;;0.30;;
43696;SDS011;29301;47.620;19.560;2022-10-15T15:00:55;0.40;;;0.30;;
43696;SDS011;29301;47.620;19.560;2022-10-15T15:03:27;0.40;;;0.30;;
43696;SDS011;29301;47.620;19.560;2022-10-15T15:06:02;0.30;;;0.30;;
43696;SDS011;29301;47.620;19.560;2022-10-15T15:08:28;0.30;;;0.30;;
43696;SDS011;29301;47.620;19.560;2022-10-15T15:10:55;0.30;;;0.30;;
43696;SDS011;29301;47.620;19.560;2022-10-15T15:13:25;0.30;;;0.28;;
43696;SDS011;29301;47.620;19.560;2022-10-15T15:15:52;0.30;;;0.22;;
43696;SDS011;29301;47.620;19.560;2022-10-15T15:18:18;0.40;;;0.30;;
43696;SDS011;29301;47.620;19.560;2022-10-15T15:20:45;0.30;;;0.30;;
43696;SDS011;29301;47.620;19.560;2022-10-15T15:23:23;0.30;;;0.30;;
43696;SDS011;29301;47.620;19.560;2022-10-15T15:25:51;0.30;;;0.30;;
43696;SDS011;29301;47.620;19.560;2022-10-15T15:28:18;0.40;;;0.30;;
43696;SDS011;29301;47.620;19.560;2022-10-15T15:30:48;0.30;;;0.30;;
43696;SDS011;29301;47.620;19.560;2022-10-15T15:33:25;0.40;;;0.30;;
43696;SDS011;29301;47.620;19.560;2022-10-15T15:35:58;0.30;;;0.30;;
43696;SDS011;29301;47.620;19.560;2022-10-15T15:38:26;0.40;;;0.30;;
43696;SDS011;29301;47.620;19.560;2022-10-15T15:41:02;0.40;;;0.30;;
43696;SDS011;29301;47.620;19.560;2022-10-15T15:43:35;0.32;;;0.30;;
43696;SDS011;29301;47.620;19.560;2022-10-15T15:46:00;0.40;;;0.30;;
43696;SDS011;29301;47.620;19.560;2022-10-15T15:48:26;0.30;;;0.30;;
43696;SDS011;29301;47.620;19.560;2022-10-15T15:50:52;0.30;;;0.30;;
43696;SDS011;29301;47.620;19.560;2022-10-15T15:53:23;0.40;;;0.30;;
43696;SDS011;29301;47.620;19.560;2022-10-15T15:55:48;0.50;;;0.40;;
43696;SDS011;29301;47.620;19.560;2022-10-15T15:58:14;0.40;;;0.30;;
43696;SDS011;29301;47.620;19.560;2022-10-15T16:00:40;0.30;;;0.30;;
43696;SDS011;29301;47.620;19.560;2022-10-15T16:03:05;0.40;;;0.30;;
43696;SDS011;29301;47.620;19.560;2022-10-15T16:05:32;0.30;;;0.30;;
43696;SDS011;29301;47.620;19.560;2022-10-15T16:07:58;0.40;;;0.30;;
43696;SDS011;29301;47.620;19.560;2022-10-15T16:10:24;0.40;;;0.30;;
43696;SDS011;29301;47.620;19.560;2022-10-15T16:12:49;0.40;;;0.30;;
43696;SDS011;29301;47.620;19.560;2022-10-15T16:15:15;0.40;;;0.30;;
43696;SDS011;29301;47.620;19.560;2022-10-15T16:17:41;0.40;;;0.30;;
43696;SDS011;29301;47.620;19.560;2022-10-15T16:20:08;0.30;;;0.30;;
43696;SDS011;29301;47.620;19.560;2022-10-15T16:22:34;0.30;;;0.30;;
43696;SDS011;29301;47.620;19.560;2022-10-15T16:25:00;0.38;;;0.38;;
43696;SDS011;29301;47.620;19.560;2022-10-15T16:27:25;0.30;;;0.30;;
43696;SDS011;29301;47.620;19.560;2022-10-15T16:29:51;0.50;;;0.40;;
43696;SDS011;29301;47.620;19.560;2022-10-15T16:32:17;0.30;;;0.30;;
43696;SDS011;29301;47.620;19.560;2022-10-15T16:34:42;0.40;;;0.30;;
43696;SDS011;29301;47.620;19.560;2022-10-15T16:37:08;0.30;;;0.30;;
43696;SDS011;29301;47.620;19.560;2022-10-15T16:39:33;0.40;;;0.30;;
43696;SDS011;29301;47.620;19.560;2022-10-15T16:41:59;0.40;;;0.30;;
43696;SDS011;29301;47.620;19.560;2022-10-15T16:44:26;0.40;;;0.30;;
43696;SDS011;29301;47.620;19.560;2022-10-15T16:46:52;0.30;;;0.30;;
43696;SDS011;29301;47.620;19.560;2022-10-15T16:49:17;0.40;;;0.30;;
43696;SDS011;29301;47.620;19.560;2022-10-15T16:51:43;0.40;;;0.30;;
43696;SDS011;29301;47.620;19.560;2022-10-15T16:54:10;0.30;;;0.30;;
43696;SDS011;29301;47.620;19.560;2022-10-15T16:56:37;0.40;;;0.30;;
43696;SDS011;29301;47.620;19.560;2022-10-15T16:59:03;0.43;;;0.40;;
43696;SDS011;29301;47.620;19.560;2022-10-15T17:01:29;0.40;;;0.30;;
43696;SDS011;29301;47.620;19.560;2022-10-15T17:03:56;0.40;;;0.30;;
43696;SDS011;29301;47.620;19.560;2022-10-15T17:06:23;0.30;;;0.30;;
43696;SDS011;29301;47.620;19.560;2022-10-15T17:08:51;0.40;;;0.30;;
43696;SDS011;29301;47.620;19.560;2022-10-15T17:11:23;0.40;;;0.40;;
43696;SDS011;29301;47.620;19.560;2022-10-15T17:13:56;0.50;;;0.40;;